createdAt,value
2022-10-29T00:00:21.991Z,1.48
2022-10-29T00:02:51.707Z,0.82
2022-10-29T00:05:20.008Z,0.45
2022-10-29T00:07:48.254Z,1.08
2022-10-29T00:10:16.577Z,0.50
2022-10-29T00:12:44.818Z,1.10
2022-10-29T00:15:13.377Z,0.50
2022-10-29T00:17:41.588Z,0.50
2022-10-29T00:20:11.736Z,1.00
2022-10-29T00:22:40.019Z,0.70
2022-10-29T00:25:08.548Z,1.08
2022-10-29T00:27:36.775Z,0.90
2022-10-29T00:30:05.256Z,1.27
2022-10-29T00:32:33.539Z,0.50
2022-10-29T00:35:01.830Z,1.00
2022-10-29T00:37:31.413Z,0.52
2022-10-29T00:39:59.679Z,0.63
2022-10-29T00:42:27.926Z,0.47
2022-10-29T00:44:56.176Z,0.60
2022-10-29T00:47:25.476Z,0.50
2022-10-29T00:49:56.191Z,1.55
2022-10-29T00:52:28.669Z,0.80
2022-10-29T00:54:58.934Z,0.82
2022-10-29T00:57:29.391Z,0.57
2022-10-29T00:59:57.718Z,0.73
2022-10-29T01:02:26.080Z,0.82
2022-10-29T01:04:54.798Z,0.70
2022-10-29T01:07:24.053Z,0.75
2022-10-29T01:09:52.577Z,1.15
2022-10-29T01:12:31.448Z,0.50
2022-10-29T01:15:06.115Z,0.82
2022-10-29T01:17:37.883Z,0.65
2022-10-29T01:20:25.341Z,1.25
2022-10-29T01:23:02.222Z,0.50
2022-10-29T01:25:38.481Z,0.80
2022-10-29T01:28:12.733Z,1.15
2022-10-29T01:30:58.497Z,1.08
2022-10-29T01:33:28.891Z,0.60
2022-10-29T01:35:59.914Z,1.10
2022-10-29T01:38:33.254Z,0.93
2022-10-29T01:41:05.194Z,0.80
2022-10-29T01:43:35.614Z,0.70
2022-10-29T01:46:08.066Z,0.93
2022-10-29T01:48:37.712Z,0.80
2022-10-29T01:51:08.418Z,0.60
2022-10-29T01:53:37.661Z,0.55
2022-10-29T01:56:05.934Z,1.02
2022-10-29T01:58:35.772Z,0.77
2022-10-29T02:01:08.411Z,0.40
2022-10-29T02:03:45.033Z,1.23
2022-10-29T02:06:16.867Z,0.60
2022-10-29T02:08:49.088Z,0.85
2022-10-29T02:11:20.786Z,0.75
2022-10-29T02:13:52.412Z,1.05
2022-10-29T02:16:22.348Z,0.60
2022-10-29T02:18:51.236Z,1.15
2022-10-29T02:21:19.802Z,0.68
2022-10-29T02:23:48.477Z,0.63
2022-10-29T02:26:17.090Z,0.57
2022-10-29T02:28:45.551Z,0.77
2022-10-29T02:31:13.797Z,0.40
2022-10-29T02:33:43.386Z,0.70
2022-10-29T02:36:11.744Z,0.73
2022-10-29T02:38:39.970Z,1.20
2022-10-29T02:41:08.209Z,0.70
2022-10-29T02:43:36.444Z,0.65
2022-10-29T02:46:17.638Z,0.30
2022-10-29T02:48:47.283Z,0.65
2022-10-29T02:51:15.634Z,0.52
2022-10-29T02:53:43.951Z,0.90
2022-10-29T02:56:12.682Z,0.90
2022-10-29T02:58:40.911Z,0.60
2022-10-29T03:01:09.166Z,1.08
2022-10-29T03:03:37.858Z,0.30
2022-10-29T03:06:13.492Z,0.75
2022-10-29T03:08:41.732Z,0.98
2022-10-29T03:11:10.133Z,0.30
2022-10-29T03:16:11.973Z,0.60
2022-10-29T03:18:40.232Z,0.88
2022-10-29T03:21:10.038Z,0.70
2022-10-29T03:23:38.259Z,0.57
2022-10-29T03:26:06.853Z,0.30
2022-10-29T03:28:35.172Z,0.50
2022-10-29T03:31:03.596Z,0.65
2022-10-29T03:33:31.912Z,0.35
2022-10-29T03:36:00.364Z,0.57
2022-10-29T03:38:30.064Z,0.70
2022-10-29T03:40:58.299Z,0.60
2022-10-29T03:43:26.608Z,0.50
2022-10-29T03:45:55.288Z,0.85
2022-10-29T03:48:23.995Z,0.88
2022-10-29T03:50:58.240Z,0.50
2022-10-29T03:53:26.982Z,0.60
2022-10-29T03:55:57.169Z,0.75
2022-10-29T03:58:25.524Z,0.63
2022-10-29T04:00:57.466Z,0.55
2022-10-29T04:03:25.853Z,1.05
2022-10-29T04:05:54.323Z,1.20
2022-10-29T04:08:22.797Z,0.70
2022-10-29T04:10:51.589Z,0.65
2022-10-29T04:13:21.563Z,0.52
2022-10-29T04:15:49.835Z,0.60
2022-10-29T04:18:18.112Z,0.25
2022-10-29T04:23:01.941Z,0.40
2022-10-29T04:29:12.878Z,0.52
2022-10-29T04:31:41.123Z,0.60
2022-10-29T04:34:09.348Z,0.70
2022-10-29T04:36:37.618Z,0.52
2022-10-29T04:39:06.096Z,0.30
2022-10-29T04:41:34.951Z,0.60
2022-10-29T04:44:03.274Z,0.80
2022-10-29T04:46:32.814Z,0.32
2022-10-29T04:49:01.228Z,0.50
2022-10-29T04:51:29.502Z,0.85
2022-10-29T04:53:57.739Z,0.50
2022-10-29T04:56:26.017Z,0.50
2022-10-29T04:58:54.457Z,0.50
2022-10-29T05:01:22.824Z,0.90
2022-10-29T05:03:55.614Z,0.45
2022-10-29T05:06:27.270Z,0.35
2022-10-29T05:08:55.486Z,0.63
2022-10-29T05:11:23.765Z,0.57
2022-10-29T05:13:52.049Z,0.60
2022-10-29T05:16:20.299Z,0.32
2022-10-29T05:18:48.572Z,0.30
2022-10-29T05:21:18.178Z,0.43
2022-10-29T05:23:46.434Z,0.75
2022-10-29T05:26:15.197Z,0.30
2022-10-29T05:28:43.475Z,1.27
2022-10-29T05:31:11.800Z,0.57
2022-10-29T05:33:40.078Z,0.75
2022-10-29T05:36:08.535Z,0.60
2022-10-29T05:38:38.379Z,0.35
2022-10-29T05:41:06.797Z,0.80
2022-10-29T05:43:35.229Z,0.90
2022-10-29T05:46:04.340Z,0.60
2022-10-29T05:48:32.628Z,0.52
2022-10-29T05:51:00.872Z,0.52
2022-10-29T05:53:29.160Z,0.57
2022-10-29T05:56:00.173Z,0.95
2022-10-29T05:58:28.530Z,0.32
2022-10-29T06:00:56.833Z,0.38
2022-10-29T06:03:25.275Z,0.30
2022-10-29T06:05:53.556Z,0.57
2022-10-29T06:08:21.993Z,0.63
2022-10-29T06:10:50.302Z,1.60
2022-10-29T06:13:20.914Z,0.50
2022-10-29T06:15:49.648Z,0.43
2022-10-29T06:18:18.002Z,0.60
2022-10-29T06:20:46.273Z,0.52
2022-10-29T06:23:14.573Z,0.60
2022-10-29T06:25:42.838Z,0.63
2022-10-29T06:28:15.132Z,0.45
2022-10-29T06:30:48.267Z,0.60
2022-10-29T06:33:17.072Z,0.43
2022-10-29T06:35:45.347Z,0.80
2022-10-29T06:38:13.732Z,0.55
2022-10-29T06:40:42.145Z,0.52
2022-10-29T06:43:11.526Z,0.98
2022-10-29T06:45:39.891Z,0.30
2022-10-29T06:48:09.760Z,0.70
2022-10-29T06:50:38.152Z,0.20
2022-10-29T06:53:07.245Z,0.60
2022-10-29T06:55:35.808Z,0.20
2022-10-29T06:58:04.529Z,0.20
2022-10-29T07:00:33.349Z,0.20
2022-10-29T07:03:01.750Z,0.50
2022-10-29T07:05:31.431Z,0.22
2022-10-29T07:08:00.569Z,0.40
2022-10-29T07:10:30.047Z,1.42
2022-10-29T07:12:58.343Z,1.13
2022-10-29T07:15:27.921Z,0.40
2022-10-29T07:17:59.206Z,0.60
2022-10-29T07:20:27.962Z,0.45
2022-10-29T07:22:58.242Z,0.57
2022-10-29T07:25:26.792Z,0.55
2022-10-29T07:27:55.461Z,0.63
2022-10-29T07:30:24.277Z,0.82
2022-10-29T07:32:52.886Z,0.45
2022-10-29T07:35:21.236Z,0.55
2022-10-29T07:37:49.485Z,0.88
2022-10-29T07:40:19.156Z,0.30
2022-10-29T07:42:47.556Z,0.88
2022-10-29T07:48:48.472Z,0.90
2022-10-29T07:51:16.726Z,0.68
2022-10-29T07:53:44.992Z,0.50
2022-10-29T07:56:14.612Z,0.63
2022-10-29T07:58:42.854Z,0.73
2022-10-29T08:01:11.225Z,0.75
2022-10-29T08:03:39.558Z,0.50
2022-10-29T08:06:08.083Z,0.30
2022-10-29T08:08:36.471Z,1.38
2022-10-29T08:11:05.808Z,0.65
2022-10-29T08:13:35.512Z,0.30
2022-10-29T08:16:03.761Z,0.70
2022-10-29T08:18:32.109Z,0.45
2022-10-29T08:21:00.377Z,0.50
2022-10-29T08:23:28.605Z,0.50
2022-10-29T08:25:59.034Z,0.65
2022-10-29T08:28:29.310Z,0.52
2022-10-29T08:31:00.109Z,0.30
2022-10-29T08:33:28.371Z,0.40
2022-10-29T08:35:56.656Z,0.40
2022-10-29T08:38:24.917Z,0.82
2022-10-29T08:41:03.104Z,0.65
2022-10-29T08:43:42.046Z,0.70
2022-10-29T08:46:18.940Z,0.50
2022-10-29T08:48:50.471Z,0.50
2022-10-29T08:51:22.230Z,0.63
2022-10-29T08:54:10.485Z,0.30
2022-10-29T08:56:41.305Z,0.60
2022-10-29T08:59:13.730Z,0.30
2022-10-29T09:01:43.624Z,0.80
2022-10-29T09:04:18.510Z,0.60
2022-10-29T09:06:54.507Z,0.85
2022-10-29T09:09:31.429Z,0.50
2022-10-29T09:12:09.028Z,0.50
2022-10-29T09:14:49.056Z,0.45
2022-10-29T09:17:22.763Z,1.23
2022-10-29T09:20:00.832Z,0.40
2022-10-29T09:22:30.918Z,0.63
2022-10-29T09:25:01.948Z,0.45
2022-10-29T09:27:35.133Z,0.40
2022-10-29T09:30:06.327Z,0.57
2022-10-29T09:32:38.547Z,1.35
2022-10-29T09:35:11.851Z,0.85
2022-10-29T09:37:42.648Z,0.60
2022-10-29T09:40:17.392Z,0.73
2022-10-29T09:42:47.593Z,0.60
2022-10-29T09:45:17.208Z,0.85
2022-10-29T09:47:51.460Z,0.40
2022-10-29T09:50:23.748Z,0.30
2022-10-29T09:52:52.485Z,0.52
2022-10-29T09:55:22.945Z,0.65
2022-10-29T09:57:51.258Z,0.85
2022-10-29T10:00:21.163Z,0.40
2022-10-29T10:02:54.945Z,0.85
2022-10-29T10:05:26.988Z,0.80
2022-10-29T10:08:16.171Z,0.68
2022-10-29T10:10:53.841Z,0.63
2022-10-29T10:13:26.098Z,0.52
2022-10-29T10:15:56.561Z,0.70
2022-10-29T10:18:26.737Z,1.85
2022-10-29T10:21:05.666Z,0.55
2022-10-29T10:23:41.800Z,0.32
2022-10-29T10:26:24.924Z,0.82
2022-10-29T10:29:04.885Z,0.40
2022-10-29T10:31:33.139Z,0.98
2022-10-29T10:34:09.423Z,0.40
2022-10-29T10:36:40.335Z,0.55
2022-10-29T10:39:19.054Z,0.20
2022-10-29T10:41:47.571Z,0.63
2022-10-29T10:44:15.966Z,0.38
2022-10-29T10:46:45.086Z,1.70
2022-10-29T10:49:17.764Z,1.17
2022-10-29T10:51:46.771Z,0.75
2022-10-29T10:54:27.467Z,1.35
2022-10-29T10:56:59.043Z,0.55
2022-10-29T10:59:29.196Z,0.70
2022-10-29T11:02:00.654Z,1.30
2022-10-29T11:04:32.932Z,0.55
2022-10-29T11:07:03.343Z,0.85
2022-10-29T11:09:35.280Z,0.47
2022-10-29T11:12:06.970Z,0.65
2022-10-29T11:14:38.031Z,0.43
2022-10-29T11:17:08.983Z,0.63
2022-10-29T11:19:41.947Z,0.45
2022-10-29T11:22:15.118Z,0.40
2022-10-29T11:24:47.095Z,1.38
2022-10-29T11:27:22.886Z,0.63
2022-10-29T11:29:55.410Z,0.50
2022-10-29T11:32:25.599Z,0.50
2022-10-29T11:34:59.271Z,0.73
2022-10-29T11:37:31.345Z,0.60
2022-10-29T11:40:01.338Z,0.60
2022-10-29T11:42:29.704Z,1.42
2022-10-29T11:44:59.971Z,1.55
2022-10-29T11:47:39.598Z,0.40
2022-10-29T11:50:16.002Z,1.10
2022-10-29T11:52:48.228Z,0.40
2022-10-29T11:55:21.792Z,0.40
2022-10-29T11:57:52.165Z,0.40
2022-10-29T12:00:21.267Z,0.82
2022-10-29T12:03:04.430Z,0.47
2022-10-29T12:05:38.697Z,0.82
2022-10-29T12:08:16.687Z,0.35
2022-10-29T12:10:49.570Z,0.30
2022-10-29T12:13:22.734Z,0.40
2022-10-29T12:15:55.484Z,0.75
2022-10-29T12:18:26.925Z,0.38
2022-10-29T12:21:00.201Z,1.67
2022-10-29T12:23:33.875Z,0.68
2022-10-29T12:26:07.859Z,0.40
2022-10-29T12:28:40.100Z,1.00
2022-10-29T12:31:12.483Z,0.50
2022-10-29T12:33:44.228Z,0.60
2022-10-29T12:36:18.034Z,1.42
2022-10-29T12:38:49.382Z,0.90
2022-10-29T12:41:19.740Z,1.02
2022-10-29T12:43:48.573Z,0.70
2022-10-29T12:46:21.946Z,0.30
2022-10-29T12:48:56.983Z,0.70
2022-10-29T12:51:31.533Z,0.70
2022-10-29T12:54:18.249Z,0.60
2022-10-29T12:56:49.467Z,1.08
2022-10-29T12:59:35.605Z,0.88
2022-10-29T13:02:22.850Z,0.80
2022-10-29T13:05:14.988Z,0.52
2022-10-29T13:07:58.654Z,0.52
2022-10-29T13:10:46.000Z,0.40
2022-10-29T13:13:23.422Z,0.50
2022-10-29T13:16:00.717Z,0.55
2022-10-29T13:18:30.590Z,0.98
2022-10-29T13:20:59.006Z,0.50
2022-10-29T13:23:34.906Z,0.40
2022-10-29T13:26:06.079Z,0.57
2022-10-29T13:28:52.242Z,0.43
2022-10-29T13:31:39.079Z,0.40
2022-10-29T13:34:08.565Z,0.73
2022-10-29T13:36:38.778Z,0.80
2022-10-29T13:39:20.647Z,0.75
2022-10-29T13:41:52.502Z,0.60
2022-10-29T13:44:24.400Z,0.95
2022-10-29T13:46:54.590Z,0.60
2022-10-29T13:49:23.968Z,0.90
2022-10-29T13:51:55.088Z,0.82
2022-10-29T13:54:32.766Z,1.00
2022-10-29T13:57:05.046Z,0.88
2022-10-29T13:59:40.363Z,0.52
2022-10-29T14:02:31.075Z,0.30
2022-10-29T14:05:02.840Z,0.68
2022-10-29T14:07:32.851Z,0.88
2022-10-29T14:10:04.530Z,0.80
2022-10-29T14:12:34.017Z,1.02
2022-10-29T14:15:12.122Z,0.57
2022-10-29T14:17:40.825Z,1.10
2022-10-29T14:20:21.407Z,0.35
2022-10-29T14:22:49.711Z,0.63
2022-10-29T14:25:34.541Z,0.45
2022-10-29T14:28:20.986Z,0.50
2022-10-29T14:31:00.962Z,0.40
2022-10-29T14:33:30.283Z,1.00
2022-10-29T14:36:00.803Z,0.70
2022-10-29T14:38:38.844Z,1.05
2022-10-29T14:41:08.380Z,0.50
2022-10-29T14:43:37.267Z,0.52
2022-10-29T14:46:14.703Z,0.77
2022-10-29T14:48:48.679Z,0.93
2022-10-29T14:51:20.642Z,0.30
2022-10-29T14:53:53.654Z,0.20
2022-10-29T14:56:22.551Z,0.75
2022-10-29T14:58:50.969Z,0.70
2022-10-29T15:01:21.920Z,1.15
2022-10-29T15:03:58.532Z,0.70
2022-10-29T15:06:28.453Z,0.90
2022-10-29T15:08:58.205Z,1.00
2022-10-29T15:11:33.593Z,0.75
2022-10-29T15:14:02.263Z,0.57
2022-10-29T15:16:38.095Z,0.50
2022-10-29T15:19:13.985Z,0.55
2022-10-29T15:21:42.352Z,0.57
2022-10-29T15:24:19.488Z,0.50
2022-10-29T15:26:50.880Z,0.75
2022-10-29T15:29:33.989Z,1.00
2022-10-29T15:32:05.528Z,0.60
2022-10-29T15:34:35.150Z,0.73
2022-10-29T15:37:16.655Z,1.23
2022-10-29T15:40:01.184Z,0.43
2022-10-29T15:42:30.780Z,0.70
2022-10-29T15:47:46.753Z,0.22
2022-10-29T15:50:16.228Z,0.50
2022-10-29T15:52:45.522Z,0.98
2022-10-29T15:55:16.500Z,0.93
2022-10-29T15:57:46.268Z,0.80
2022-10-29T16:00:16.078Z,1.05
2022-10-29T16:02:47.132Z,0.80
2022-10-29T16:05:15.688Z,0.95
2022-10-29T16:07:44.717Z,0.80
2022-10-29T16:10:21.316Z,0.77
2022-10-29T16:12:50.484Z,0.98
2022-10-29T16:15:20.235Z,0.98
2022-10-29T16:17:49.999Z,0.73
2022-10-29T16:20:18.979Z,0.70
2022-10-29T16:22:48.171Z,0.85
2022-10-29T16:25:19.482Z,1.25
2022-10-29T16:27:50.053Z,0.82
2022-10-29T16:30:18.843Z,1.05
2022-10-29T16:32:47.648Z,2.05
2022-10-29T16:35:19.632Z,1.40
2022-10-29T16:37:48.000Z,1.05
2022-10-29T16:40:16.822Z,1.75
2022-10-29T16:42:45.955Z,1.13
2022-10-29T16:45:16.759Z,1.38
2022-10-29T16:47:45.504Z,0.75
2022-10-29T16:50:22.271Z,1.48
2022-10-29T16:52:53.188Z,1.50
2022-10-29T16:55:21.951Z,0.50
2022-10-29T16:57:50.565Z,1.33
2022-10-29T17:00:19.144Z,1.42
2022-10-29T17:02:47.788Z,1.05
2022-10-29T17:05:16.749Z,0.60
2022-10-29T17:07:46.561Z,0.80
2022-10-29T17:10:14.926Z,1.25
2022-10-29T17:12:43.254Z,0.50
2022-10-29T17:15:11.934Z,1.80
2022-10-29T17:17:43.829Z,0.52
2022-10-29T17:20:14.641Z,0.35
2022-10-29T17:22:43.004Z,0.60
2022-10-29T17:25:13.110Z,1.45
2022-10-29T17:27:41.476Z,1.00
2022-10-29T17:30:10.577Z,0.40
2022-10-29T17:32:39.315Z,0.65
2022-10-29T17:35:07.994Z,0.60
2022-10-29T17:37:36.448Z,0.75
2022-10-29T17:40:08.169Z,1.00
2022-10-29T17:42:38.060Z,1.15
2022-10-29T17:45:07.122Z,1.65
2022-10-29T17:47:35.453Z,0.95
2022-10-29T17:50:03.878Z,1.40
2022-10-29T17:52:32.129Z,1.88
2022-10-29T17:55:02.875Z,1.20
2022-10-29T17:57:31.961Z,1.67
2022-10-29T18:00:09.987Z,1.27
2022-10-29T18:02:38.683Z,1.02
2022-10-29T18:05:07.502Z,1.35
2022-10-29T18:07:35.971Z,1.55
2022-10-29T18:10:04.409Z,0.75
2022-10-29T18:12:32.822Z,1.52
2022-10-29T18:15:05.144Z,1.35
2022-10-29T18:20:17.087Z,0.93
2022-10-29T18:22:45.983Z,1.20
2022-10-29T18:25:14.368Z,0.63
2022-10-29T18:27:42.680Z,1.50
2022-10-29T18:30:12.808Z,1.30
2022-10-29T18:32:41.154Z,0.73
2022-10-29T18:35:10.262Z,0.73
2022-10-29T18:37:38.950Z,0.90
2022-10-29T18:40:08.017Z,0.98
2022-10-29T18:42:36.297Z,1.00
2022-10-29T18:45:04.603Z,0.85
2022-10-29T18:47:34.361Z,1.23
2022-10-29T18:50:02.767Z,1.58
2022-10-29T18:52:31.059Z,1.10
2022-10-29T18:54:59.502Z,0.70
2022-10-29T18:57:27.928Z,1.02
2022-10-29T18:59:56.316Z,0.70
2022-10-29T19:02:24.945Z,0.57
2022-10-29T19:04:54.668Z,0.82
2022-10-29T19:07:23.096Z,0.80
2022-10-29T19:09:51.963Z,0.70
2022-10-29T19:12:20.333Z,1.63
2022-10-29T19:14:48.995Z,1.38
2022-10-29T19:17:17.407Z,2.70
2022-10-29T19:19:45.715Z,2.15
2022-10-29T19:22:15.594Z,2.78
2022-10-29T19:24:44.176Z,2.72
2022-10-29T19:27:13.009Z,3.97
2022-10-29T19:29:41.427Z,4.30
2022-10-29T19:32:09.909Z,3.40
2022-10-29T19:37:12.519Z,2.03
2022-10-29T19:39:42.368Z,2.28
2022-10-29T19:42:10.971Z,1.77
2022-10-29T19:44:41.433Z,2.10
2022-10-29T19:47:10.133Z,0.88
2022-10-29T19:49:38.573Z,1.85
2022-10-29T19:52:06.973Z,1.27
2022-10-29T19:54:35.903Z,0.88
2022-10-29T19:57:05.760Z,1.10
2022-10-29T19:59:34.170Z,1.10
2022-10-29T20:02:02.628Z,1.20
2022-10-29T20:04:31.140Z,0.55
2022-10-29T20:06:59.457Z,0.60
2022-10-29T20:09:27.887Z,1.00
2022-10-29T20:11:56.219Z,1.55
2022-10-29T20:14:29.002Z,0.65
2022-10-29T20:16:57.690Z,1.20
2022-10-29T20:19:26.093Z,0.65
2022-10-29T20:21:54.717Z,0.75
2022-10-29T20:24:23.599Z,0.57
2022-10-29T20:26:52.624Z,1.52
2022-10-29T20:29:21.117Z,1.00
2022-10-29T20:31:51.257Z,1.40
2022-10-29T20:34:20.159Z,2.13
2022-10-29T20:36:48.878Z,3.15
2022-10-29T20:39:18.028Z,1.88
2022-10-29T20:41:47.918Z,1.77
2022-10-29T20:44:16.355Z,1.77
2022-10-29T20:46:44.690Z,2.65
2022-10-29T20:49:14.452Z,2.47
2022-10-29T20:51:42.859Z,2.78
2022-10-29T20:54:11.246Z,4.40
2022-10-29T20:56:39.720Z,5.00
2022-10-29T20:59:08.273Z,6.28
2022-10-29T21:01:36.707Z,5.13
2022-10-29T21:04:05.473Z,4.75
2022-10-29T21:06:35.520Z,4.82
2022-10-29T21:09:03.862Z,5.03
2022-10-29T21:11:32.394Z,3.33
2022-10-29T21:14:00.888Z,2.10
2022-10-29T21:16:29.916Z,3.22
2022-10-29T21:18:59.366Z,2.72
2022-10-29T21:21:28.078Z,2.28
2022-10-29T21:23:58.027Z,1.95
2022-10-29T21:26:27.599Z,2.20
2022-10-29T21:28:56.237Z,1.33
2022-10-29T21:31:25.562Z,1.63
2022-10-29T21:33:54.367Z,1.48
2022-10-29T21:36:23.336Z,1.27
2022-10-29T21:38:51.802Z,1.33
2022-10-29T21:41:21.597Z,0.95
2022-10-29T21:43:50.022Z,0.75
2022-10-29T21:46:18.373Z,1.85
2022-10-29T21:48:46.847Z,0.65
2022-10-29T21:51:17.295Z,1.15
2022-10-29T21:53:46.095Z,0.82
2022-10-29T21:56:15.964Z,0.88
2022-10-29T21:58:45.952Z,0.98
2022-10-29T22:01:15.047Z,0.90
2022-10-29T22:03:44.704Z,1.05
2022-10-29T22:06:14.461Z,0.90
2022-10-29T22:08:42.963Z,0.93
2022-10-29T22:11:11.787Z,1.27
2022-10-29T22:13:40.194Z,0.60
2022-10-29T22:16:10.410Z,1.23
2022-10-29T22:18:38.991Z,0.90
2022-10-29T22:21:08.671Z,1.05
2022-10-29T22:23:38.304Z,1.23
2022-10-29T22:26:06.856Z,0.98
2022-10-29T22:28:35.193Z,1.05
2022-10-29T22:31:04.174Z,1.02
2022-10-29T22:33:34.485Z,1.00
2022-10-29T22:36:07.034Z,1.17
2022-10-29T22:38:35.327Z,1.27
2022-10-29T22:41:07.496Z,1.92
2022-10-29T22:43:36.099Z,1.63
2022-10-29T22:46:05.096Z,2.25
2022-10-29T22:48:35.004Z,1.52
2022-10-29T22:51:04.393Z,1.95
2022-10-29T22:53:32.841Z,1.67
2022-10-29T22:56:01.233Z,1.13
2022-10-29T22:58:29.934Z,1.50
2022-10-29T23:01:07.974Z,0.70
2022-10-29T23:03:39.165Z,1.00
2022-10-29T23:06:08.445Z,1.13
2022-10-29T23:08:37.146Z,0.93
2022-10-29T23:11:06.397Z,0.77
2022-10-29T23:13:34.962Z,0.73
2022-10-29T23:16:03.257Z,0.35
2022-10-29T23:18:31.615Z,0.70
2022-10-29T23:21:01.889Z,0.50
2022-10-29T23:23:30.471Z,0.65
2022-10-29T23:26:01.615Z,1.40
2022-10-29T23:28:30.209Z,0.82
2022-10-29T23:30:59.123Z,0.90
2022-10-29T23:33:27.604Z,0.52
2022-10-29T23:35:56.024Z,0.52
2022-10-29T23:38:25.654Z,1.77
2022-10-29T23:40:53.927Z,1.15
2022-10-29T23:43:22.206Z,0.90
2022-10-29T23:45:50.788Z,0.80
2022-10-29T23:48:18.988Z,0.93
2022-10-29T23:50:47.535Z,0.82
2022-10-29T23:53:16.556Z,0.75
2022-10-29T23:55:46.935Z,0.57
2022-10-29T23:58:15.482Z,0.73
